createdAt,value
2023-04-26T00:44:57.376Z,9.55
2023-04-26T00:47:27.437Z,6.78
2023-04-26T00:49:54.528Z,5.57
2023-04-26T00:52:22.323Z,8.38
2023-04-26T00:54:51.773Z,9.13
2023-04-26T00:57:18.882Z,7.60
2023-04-26T00:59:46.044Z,4.82
2023-04-26T01:02:13.573Z,7.30
2023-04-26T01:04:41.886Z,9.18
2023-04-26T01:07:10.074Z,6.20
2023-04-26T01:09:37.190Z,9.02
2023-04-26T01:12:05.469Z,11.15
2023-04-26T01:14:32.620Z,11.82
2023-04-26T01:16:59.864Z,7.88
2023-04-26T01:19:27.022Z,7.05
2023-04-26T01:21:54.108Z,6.75
2023-04-26T01:24:21.401Z,7.55
2023-04-26T01:26:48.516Z,9.88
2023-04-26T01:29:19.092Z,6.97
2023-04-26T01:31:46.826Z,7.32
2023-04-26T01:34:14.102Z,8.75
2023-04-26T01:36:41.471Z,9.02
2023-04-26T01:39:09.365Z,5.78
2023-04-26T01:41:36.636Z,7.40
2023-04-26T01:44:03.941Z,5.18
2023-04-26T01:46:32.240Z,5.75
2023-04-26T01:48:59.424Z,6.72
2023-04-26T01:51:27.188Z,6.07
2023-04-26T01:53:53.898Z,8.38
2023-04-26T01:56:22.497Z,8.38
2023-04-26T01:58:49.345Z,7.85
2023-04-26T02:01:16.290Z,8.48
2023-04-26T02:03:43.069Z,8.95
2023-04-26T02:06:09.848Z,8.23
2023-04-26T02:08:36.553Z,8.43
2023-04-26T02:11:03.312Z,7.82
2023-04-26T02:13:30.569Z,10.93
2023-04-26T02:15:57.950Z,7.20
2023-04-26T02:18:25.102Z,9.98
2023-04-26T02:20:52.243Z,6.38
2023-04-26T02:23:18.883Z,5.57
2023-04-26T02:25:47.526Z,7.65
2023-04-26T02:28:14.818Z,7.18
2023-04-26T02:30:42.063Z,5.88
2023-04-26T02:33:09.092Z,8.40
2023-04-26T02:35:37.427Z,5.63
2023-04-26T02:38:04.379Z,6.55
2023-04-26T02:40:31.317Z,7.07
2023-04-26T02:42:58.003Z,7.40
2023-04-26T02:45:24.679Z,5.30
2023-04-26T02:47:51.425Z,6.10
2023-04-26T02:50:18.223Z,5.53
2023-04-26T02:52:45.028Z,8.55
2023-04-26T02:55:11.740Z,8.70
2023-04-26T02:57:38.405Z,8.43
2023-04-26T03:00:05.801Z,8.27
2023-04-26T03:02:33.333Z,7.90
2023-04-26T03:05:00.418Z,10.38
2023-04-26T03:07:27.091Z,12.25
2023-04-26T03:09:53.733Z,7.22
2023-04-26T03:12:20.390Z,11.40
2023-04-26T03:14:47.111Z,8.80
2023-04-26T03:17:14.190Z,11.38
2023-04-26T03:19:40.932Z,13.13
2023-04-26T03:22:07.701Z,7.80
2023-04-26T03:24:34.515Z,8.90
2023-04-26T03:27:01.194Z,6.32
2023-04-26T03:29:28.955Z,8.02
2023-04-26T03:31:55.802Z,5.85
2023-04-26T03:34:22.557Z,5.75
2023-04-26T03:36:49.276Z,9.25
2023-04-26T03:39:16.087Z,6.60
2023-04-26T03:41:42.886Z,6.45
2023-04-26T03:44:09.714Z,9.52
2023-04-26T03:46:36.453Z,6.95
2023-04-26T03:49:03.401Z,6.80
2023-04-26T03:51:31.352Z,7.90
2023-04-26T03:53:59.477Z,8.80
2023-04-26T03:56:26.145Z,8.27
2023-04-26T03:58:53.070Z,8.40
2023-04-26T04:01:20.559Z,6.22
2023-04-26T04:03:47.515Z,7.82
2023-04-26T04:06:14.480Z,7.25
2023-04-26T04:08:41.648Z,7.95
2023-04-26T04:11:08.763Z,7.22
2023-04-26T04:13:35.832Z,8.02
2023-04-26T04:16:02.974Z,6.57
2023-04-26T04:18:30.111Z,7.38
2023-04-26T04:20:57.195Z,7.00
2023-04-26T04:23:24.315Z,9.05
2023-04-26T04:25:51.583Z,10.02
2023-04-26T04:28:18.267Z,9.50
2023-04-26T04:30:45.963Z,6.93
2023-04-26T04:33:13.163Z,8.98
2023-04-26T04:35:41.731Z,7.10
2023-04-26T04:38:09.151Z,8.52
2023-04-26T04:40:35.984Z,9.20
2023-04-26T04:43:03.323Z,10.57
2023-04-26T04:45:30.078Z,6.75
2023-04-26T04:47:56.788Z,7.78
2023-04-26T04:50:23.573Z,8.70
2023-04-26T04:52:50.835Z,6.80
2023-04-26T04:55:17.908Z,7.05
2023-04-26T04:57:45.043Z,9.95
2023-04-26T05:00:15.878Z,11.43
2023-04-26T05:02:43.235Z,7.18
2023-04-26T05:05:11.189Z,8.07
2023-04-26T05:07:38.485Z,10.67
2023-04-26T05:10:05.780Z,8.68
2023-04-26T05:12:33.644Z,7.50
2023-04-26T05:15:00.813Z,7.53
2023-04-26T05:17:28.109Z,7.97
2023-04-26T05:19:55.337Z,7.50
2023-04-26T05:22:22.461Z,7.63
2023-04-26T05:24:49.815Z,12.48
2023-04-26T05:27:17.036Z,8.68
2023-04-26T05:29:44.287Z,7.53
2023-04-26T05:32:11.543Z,7.78
2023-04-26T05:34:39.019Z,10.23
2023-04-26T05:37:06.831Z,11.43
2023-04-26T05:39:34.053Z,8.73
2023-04-26T05:42:03.395Z,7.45
2023-04-26T05:44:30.583Z,8.05
2023-04-26T05:46:57.806Z,9.32
2023-04-26T05:49:24.973Z,11.88
2023-04-26T05:51:52.200Z,11.43
2023-04-26T05:54:19.324Z,11.82
2023-04-26T05:56:46.490Z,9.95
2023-04-26T05:59:13.857Z,9.55
2023-04-26T06:01:41.034Z,13.80
2023-04-26T06:04:08.564Z,13.35
2023-04-26T06:06:36.821Z,9.80
2023-04-26T06:09:04.610Z,10.15
2023-04-26T06:11:31.809Z,11.82
2023-04-26T06:13:58.876Z,13.68
2023-04-26T06:16:26.185Z,11.52
2023-04-26T06:18:53.297Z,11.25
2023-04-26T06:21:20.559Z,9.93
2023-04-26T06:23:47.878Z,14.55
2023-04-26T06:26:14.530Z,10.75
2023-04-26T06:28:42.304Z,17.20
2023-04-26T06:31:09.674Z,9.87
2023-04-26T06:33:36.884Z,11.55
2023-04-26T06:36:03.871Z,12.48
2023-04-26T06:38:30.947Z,11.63
2023-04-26T06:40:57.739Z,8.88
2023-04-26T06:43:24.619Z,11.10
2023-04-26T06:45:51.797Z,10.02
2023-04-26T06:48:19.008Z,8.45
2023-04-26T06:50:46.372Z,8.52
2023-04-26T06:53:13.530Z,9.18
2023-04-26T06:55:40.726Z,10.40
2023-04-26T06:58:08.068Z,8.18
2023-04-26T07:00:35.288Z,7.25
2023-04-26T07:03:02.650Z,11.23
2023-04-26T07:05:29.916Z,9.68
2023-04-26T07:07:57.050Z,8.07
2023-04-26T07:10:24.377Z,5.70
2023-04-26T07:12:51.766Z,6.63
2023-04-26T07:15:18.933Z,8.68
2023-04-26T07:17:45.709Z,11.30
2023-04-26T07:20:13.264Z,11.13
2023-04-26T07:22:40.564Z,7.30
2023-04-26T07:25:07.833Z,5.80
2023-04-26T07:27:34.500Z,8.40
2023-04-26T07:30:01.703Z,8.52
2023-04-26T07:32:29.163Z,8.18
2023-04-26T07:34:56.577Z,6.43
2023-04-26T07:37:25.299Z,5.13
2023-04-26T07:39:52.001Z,6.40
2023-04-26T07:42:18.708Z,9.00
2023-04-26T07:44:47.534Z,6.20
2023-04-26T07:49:41.425Z,5.93
2023-04-26T07:52:11.107Z,4.57
2023-04-26T07:54:38.582Z,6.57
2023-04-26T07:57:05.372Z,4.82
2023-04-26T07:59:32.113Z,3.20
2023-04-26T08:01:58.910Z,6.40
2023-04-26T08:04:36.865Z,6.32
2023-04-26T08:07:06.306Z,8.30
2023-04-26T08:09:33.064Z,4.10
2023-04-26T08:11:59.796Z,3.58
2023-04-26T08:14:27.213Z,6.68
2023-04-26T08:16:53.966Z,5.50
2023-04-26T08:19:20.738Z,4.80
2023-04-26T08:21:47.457Z,4.65
2023-04-26T08:24:14.281Z,5.82
2023-04-26T08:26:41.257Z,5.40
2023-04-26T08:29:07.993Z,7.63
2023-04-26T08:31:35.463Z,6.68
2023-04-26T08:34:02.254Z,5.10
2023-04-26T08:36:29.037Z,5.28
2023-04-26T08:38:57.666Z,8.70
2023-04-26T08:41:25.246Z,4.07
2023-04-26T08:43:52.945Z,5.70
2023-04-26T08:46:20.754Z,5.10
2023-04-26T08:49:10.792Z,5.63
2023-04-26T08:51:37.950Z,3.75
2023-04-26T08:54:05.468Z,7.60
2023-04-26T08:56:35.318Z,4.15
2023-04-26T08:59:02.143Z,3.75
2023-04-26T09:01:29.806Z,7.82
2023-04-26T09:03:57.489Z,4.53
2023-04-26T09:06:27.385Z,3.78
2023-04-26T09:08:56.341Z,8.38
2023-04-26T09:11:23.784Z,3.30
2023-04-26T09:13:50.643Z,5.82
2023-04-26T09:16:18.475Z,3.05
2023-04-26T09:18:57.248Z,5.65
2023-04-26T09:21:24.415Z,8.25
2023-04-26T09:24:11.564Z,3.95
2023-04-26T09:26:41.007Z,4.40
2023-04-26T09:29:20.451Z,2.65
2023-04-26T09:31:49.987Z,4.88
2023-04-26T09:34:17.516Z,4.60
2023-04-26T09:37:04.885Z,3.05
2023-04-26T09:39:33.478Z,5.85
2023-04-26T09:42:00.694Z,5.88
2023-04-26T09:44:29.383Z,1.55
2023-04-26T09:47:00.470Z,5.93
2023-04-26T09:49:33.929Z,2.75
2023-04-26T09:52:04.942Z,3.72
2023-04-26T09:54:48.163Z,3.53
2023-04-26T09:57:16.300Z,1.98
2023-04-26T09:59:45.829Z,6.78
2023-04-26T10:02:17.422Z,2.60
2023-04-26T10:04:49.532Z,4.90
2023-04-26T10:07:17.820Z,4.03
2023-04-26T10:09:46.740Z,4.85
2023-04-26T10:12:14.862Z,3.05
2023-04-26T10:14:42.859Z,2.67
2023-04-26T10:17:10.014Z,1.83
2023-04-26T10:19:37.657Z,3.25
2023-04-26T10:22:27.832Z,2.65
2023-04-26T10:24:57.798Z,2.88
2023-04-26T10:27:43.816Z,3.88
2023-04-26T10:30:12.221Z,2.90
2023-04-26T10:33:02.218Z,7.65
2023-04-26T10:35:32.938Z,6.30
2023-04-26T10:38:00.107Z,2.53
2023-04-26T10:40:28.444Z,3.25
2023-04-26T10:43:14.776Z,3.60
2023-04-26T10:45:42.606Z,2.88
2023-04-26T10:48:12.539Z,5.57
2023-04-26T10:50:58.267Z,3.17
2023-04-26T10:53:25.826Z,4.03
2023-04-26T10:55:53.291Z,3.10
2023-04-26T10:58:27.899Z,5.85
2023-04-26T11:01:05.482Z,4.82
2023-04-26T11:03:32.864Z,3.08
2023-04-26T11:06:00.444Z,2.97
2023-04-26T11:08:27.610Z,5.53
2023-04-26T11:11:03.779Z,4.60
2023-04-26T11:13:34.387Z,6.13
2023-04-26T11:16:06.119Z,3.20
2023-04-26T11:18:36.190Z,3.95
2023-04-26T11:21:05.287Z,5.45
2023-04-26T11:23:32.755Z,2.45
2023-04-26T11:26:02.851Z,3.05
2023-04-26T11:28:31.622Z,3.13
2023-04-26T11:31:00.858Z,2.60
2023-04-26T11:33:28.050Z,2.70
2023-04-26T11:35:55.747Z,4.32
2023-04-26T11:38:23.612Z,4.05
2023-04-26T11:40:54.796Z,4.07
2023-04-26T11:43:22.040Z,2.42
2023-04-26T11:45:49.254Z,2.15
2023-04-26T11:48:16.736Z,3.08
2023-04-26T11:50:44.143Z,3.20
2023-04-26T11:53:11.315Z,4.03
2023-04-26T11:55:40.563Z,4.82
2023-04-26T11:58:11.945Z,4.35
2023-04-26T12:00:56.253Z,5.40
2023-04-26T12:03:23.568Z,3.75
2023-04-26T12:05:56.988Z,2.60
2023-04-26T12:08:27.708Z,4.07
2023-04-26T12:11:00.005Z,2.97
2023-04-26T12:13:27.224Z,5.32
2023-04-26T12:16:00.429Z,3.13
2023-04-26T12:18:32.363Z,6.32
2023-04-26T12:21:00.078Z,3.15
2023-04-26T12:23:27.480Z,5.05
2023-04-26T12:25:55.028Z,4.70
2023-04-26T12:28:22.688Z,4.20
2023-04-26T12:30:50.423Z,3.90
2023-04-26T12:33:19.957Z,3.42
2023-04-26T12:35:47.760Z,4.57
2023-04-26T12:38:15.797Z,1.92
2023-04-26T12:40:46.114Z,3.17
2023-04-26T12:43:13.554Z,3.25
2023-04-26T12:45:40.938Z,4.05
2023-04-26T12:48:08.178Z,3.65
2023-04-26T12:50:35.389Z,4.65
2023-04-26T12:53:02.727Z,3.28
2023-04-26T12:55:32.479Z,4.78
2023-04-26T12:58:00.182Z,2.58
2023-04-26T13:00:27.283Z,2.53
2023-04-26T13:02:54.626Z,2.38
2023-04-26T13:05:24.639Z,4.05
2023-04-26T13:07:51.886Z,5.00
2023-04-26T13:10:19.114Z,3.35
2023-04-26T13:12:46.444Z,3.40
2023-04-26T13:17:43.001Z,2.50
2023-04-26T13:20:10.525Z,5.13
2023-04-26T13:22:39.395Z,3.78
2023-04-26T13:27:33.655Z,4.28
2023-04-26T13:30:00.853Z,3.17
2023-04-26T13:32:29.198Z,3.58
2023-04-26T13:34:56.936Z,5.38
2023-04-26T13:37:24.291Z,3.90
2023-04-26T13:39:51.458Z,3.50
2023-04-26T13:42:18.617Z,3.00
2023-04-26T13:44:45.798Z,4.75
2023-04-26T13:47:12.996Z,3.38
2023-04-26T13:49:41.769Z,4.93
2023-04-26T13:52:09.981Z,5.47
2023-04-26T13:54:40.039Z,2.45
2023-04-26T13:57:07.237Z,3.25
2023-04-26T13:59:35.674Z,8.10
2023-04-26T14:02:03.669Z,1.75
2023-04-26T14:04:31.107Z,3.10
2023-04-26T14:06:59.156Z,6.15
2023-04-26T14:09:25.985Z,3.23
2023-04-26T14:12:06.639Z,2.58
2023-04-26T14:14:35.227Z,3.70
2023-04-26T14:17:01.983Z,2.05
2023-04-26T14:19:28.721Z,4.30
2023-04-26T14:21:55.663Z,4.72
2023-04-26T14:24:22.795Z,5.35
2023-04-26T14:26:50.023Z,3.92
2023-04-26T14:29:17.301Z,3.67
2023-04-26T14:31:45.073Z,4.25
2023-04-26T14:34:13.225Z,3.33
2023-04-26T14:36:40.010Z,8.15
2023-04-26T14:39:07.391Z,6.50
2023-04-26T14:41:34.362Z,4.82
2023-04-26T14:44:01.025Z,2.55
2023-04-26T14:46:28.150Z,3.53
2023-04-26T14:48:56.019Z,2.72
2023-04-26T14:51:22.757Z,5.75
2023-04-26T14:53:49.498Z,2.63
2023-04-26T14:56:16.346Z,3.50
2023-04-26T14:58:43.035Z,4.72
2023-04-26T15:01:10.467Z,4.05
2023-04-26T15:03:37.676Z,2.28
2023-04-26T15:06:05.624Z,3.47
2023-04-26T15:08:33.465Z,3.33
2023-04-26T15:11:01.237Z,4.40
2023-04-26T15:13:27.988Z,2.43
2023-04-26T15:15:54.756Z,4.00
2023-04-26T15:18:21.544Z,4.10
2023-04-26T15:20:48.329Z,3.15
2023-04-26T15:23:15.098Z,3.50
2023-04-26T15:25:42.319Z,3.72
2023-04-26T15:28:08.986Z,4.35
2023-04-26T15:30:36.714Z,4.18
2023-04-26T15:33:03.654Z,5.43
2023-04-26T15:35:30.478Z,4.93
2023-04-26T15:37:57.209Z,2.40
2023-04-26T15:40:24.710Z,3.78
2023-04-26T15:42:52.188Z,4.13
2023-04-26T15:45:19.484Z,3.17
2023-04-26T15:47:47.065Z,4.68
2023-04-26T15:50:14.091Z,15.37
2023-04-26T15:52:41.397Z,4.18
2023-04-26T15:55:10.479Z,7.40
2023-04-26T15:57:37.772Z,2.78
2023-04-26T16:00:08.319Z,5.68
2023-04-26T16:02:35.589Z,2.83
2023-04-26T16:05:02.800Z,2.63
2023-04-26T16:07:29.890Z,6.70
2023-04-26T16:09:56.568Z,3.00
2023-04-26T16:12:23.266Z,5.15
2023-04-26T16:14:51.910Z,4.00
2023-04-26T16:17:18.613Z,7.55
2023-04-26T16:19:45.446Z,3.50
2023-04-26T16:22:12.169Z,6.25
2023-04-26T16:24:38.997Z,3.00
2023-04-26T16:27:05.710Z,3.15
2023-04-26T16:29:33.494Z,5.47
2023-04-26T16:32:00.368Z,7.77
2023-04-26T16:34:27.454Z,4.28
2023-04-26T16:36:54.209Z,6.65
2023-04-26T16:39:21.564Z,4.60
2023-04-26T16:41:48.270Z,2.30
2023-04-26T16:44:16.722Z,5.05
2023-04-26T16:46:43.661Z,4.10
2023-04-26T16:49:10.903Z,4.10
2023-04-26T16:51:38.362Z,6.30
2023-04-26T16:54:05.486Z,9.35
2023-04-26T16:56:33.425Z,2.95
2023-04-26T16:59:00.189Z,3.37
2023-04-26T17:01:29.051Z,6.40
2023-04-26T17:03:56.967Z,3.88
2023-04-26T17:06:24.449Z,5.13
2023-04-26T17:08:51.119Z,3.70
2023-04-26T17:11:17.926Z,7.35
2023-04-26T17:13:45.061Z,4.47
2023-04-26T17:16:12.314Z,4.22
2023-04-26T17:18:39.144Z,5.00
2023-04-26T17:21:06.098Z,4.38
2023-04-26T17:23:33.801Z,4.07
2023-04-26T17:26:01.504Z,8.03
2023-04-26T17:28:29.839Z,4.00
2023-04-26T17:30:57.309Z,2.75
2023-04-26T17:33:25.435Z,3.80
2023-04-26T17:35:52.371Z,2.83
2023-04-26T17:38:19.544Z,3.15
2023-04-26T17:40:46.367Z,3.55
2023-04-26T17:43:13.075Z,3.65
2023-04-26T17:45:39.793Z,4.93
2023-04-26T17:50:37.613Z,4.60
2023-04-26T17:53:17.158Z,4.70
2023-04-26T17:55:43.909Z,4.47
2023-04-26T17:58:10.978Z,3.58
2023-04-26T18:00:37.688Z,3.83
2023-04-26T18:03:05.173Z,4.25
2023-04-26T18:05:32.064Z,9.02
2023-04-26T18:07:59.132Z,5.93
2023-04-26T18:10:26.112Z,5.60
2023-04-26T18:12:52.822Z,5.95
2023-04-26T18:15:19.562Z,9.73
2023-04-26T18:17:46.443Z,7.05
2023-04-26T18:20:13.341Z,5.82
2023-04-26T18:22:40.629Z,4.85
2023-04-26T18:25:07.753Z,4.70
2023-04-26T18:27:34.836Z,3.58
2023-04-26T18:30:01.981Z,4.82
2023-04-26T18:32:28.770Z,3.88
2023-04-26T18:34:55.670Z,5.15
2023-04-26T18:37:22.365Z,4.05
2023-04-26T18:39:49.014Z,4.15
2023-04-26T18:42:24.660Z,4.10
2023-04-26T18:44:51.394Z,7.90
2023-04-26T18:47:18.168Z,7.45
2023-04-26T18:49:44.853Z,4.47
2023-04-26T18:52:11.547Z,4.13
2023-04-26T18:54:38.958Z,6.95
2023-04-26T18:57:05.740Z,4.57
2023-04-26T18:59:32.494Z,4.50
2023-04-26T19:01:59.373Z,3.53
2023-04-26T19:04:27.660Z,4.85
2023-04-26T19:06:54.481Z,9.80
2023-04-26T19:09:21.735Z,5.15
2023-04-26T19:11:49.051Z,5.32
2023-04-26T19:14:15.897Z,7.10
2023-04-26T19:16:42.612Z,7.55
2023-04-26T19:19:11.111Z,6.53
2023-04-26T19:21:38.885Z,8.07
2023-04-26T19:24:06.052Z,4.97
2023-04-26T19:26:33.045Z,5.90
2023-04-26T19:28:59.865Z,5.85
2023-04-26T19:31:26.572Z,3.55
2023-04-26T19:33:53.345Z,8.13
2023-04-26T19:36:20.225Z,5.70
2023-04-26T19:38:48.456Z,2.22
2023-04-26T19:41:15.358Z,5.05
2023-04-26T19:43:42.065Z,3.58
2023-04-26T19:46:12.862Z,3.40
2023-04-26T19:48:40.845Z,4.25
2023-04-26T19:51:07.790Z,4.28
2023-04-26T19:53:36.738Z,6.60
2023-04-26T19:56:03.521Z,3.80
2023-04-26T19:58:30.458Z,5.18
2023-04-26T20:00:57.205Z,4.85
2023-04-26T20:03:24.706Z,4.57
2023-04-26T20:05:54.296Z,5.60
2023-04-26T20:08:21.251Z,5.80
2023-04-26T20:10:47.920Z,6.63
2023-04-26T20:13:14.674Z,5.10
2023-04-26T20:15:41.322Z,3.33
2023-04-26T20:18:08.106Z,5.43
2023-04-26T20:20:34.813Z,3.83
2023-04-26T20:23:03.221Z,5.32
2023-04-26T20:25:30.020Z,5.53
2023-04-26T20:27:56.817Z,3.35
2023-04-26T20:30:23.714Z,6.20
2023-04-26T20:32:50.395Z,6.55
2023-04-26T20:35:17.210Z,7.43
2023-04-26T20:37:43.968Z,6.68
2023-04-26T20:40:10.925Z,7.30
2023-04-26T20:42:38.039Z,5.38
2023-04-26T20:45:05.112Z,5.25
2023-04-26T20:47:32.058Z,4.07
2023-04-26T20:49:58.898Z,8.43
2023-04-26T20:52:25.586Z,9.57
2023-04-26T20:54:52.752Z,6.22
2023-04-26T20:57:19.484Z,6.68
2023-04-26T20:59:46.285Z,4.57
2023-04-26T21:02:13.069Z,5.35
2023-04-26T21:04:42.262Z,5.32
2023-04-26T21:07:10.142Z,5.68
2023-04-26T21:09:37.019Z,6.20
2023-04-26T21:12:03.999Z,9.48
2023-04-26T21:14:30.818Z,10.32
2023-04-26T21:16:57.520Z,6.57
2023-04-26T21:19:24.308Z,7.47
2023-04-26T21:21:51.186Z,10.25
2023-04-26T21:24:18.162Z,10.65
2023-04-26T21:26:45.040Z,9.55
2023-04-26T21:29:12.638Z,8.45
2023-04-26T21:31:39.383Z,8.90
2023-04-26T21:34:06.286Z,8.57
2023-04-26T21:36:33.001Z,6.75
2023-04-26T21:38:59.628Z,6.97
2023-04-26T21:41:26.386Z,7.55
2023-04-26T21:43:54.313Z,8.23
2023-04-26T21:46:21.094Z,5.73
2023-04-26T21:48:47.894Z,10.75
2023-04-26T21:51:14.564Z,5.45
2023-04-26T21:53:41.217Z,5.18
2023-04-26T21:56:08.112Z,4.57
2023-04-26T21:58:34.892Z,4.28
2023-04-26T22:01:12.377Z,5.50
2023-04-26T22:03:39.713Z,3.47
2023-04-26T22:06:07.816Z,3.50
2023-04-26T22:08:34.872Z,4.28
2023-04-26T22:11:02.759Z,3.28
2023-04-26T22:13:30.046Z,2.80
2023-04-26T22:15:56.794Z,3.70
2023-04-26T22:18:27.059Z,3.92
2023-04-26T22:20:54.044Z,5.20
2023-04-26T22:23:21.157Z,4.05
2023-04-26T22:25:47.950Z,9.50
2023-04-26T22:28:16.405Z,4.18
2023-04-26T22:30:43.341Z,4.25
2023-04-26T22:33:12.092Z,4.95
2023-04-26T22:35:39.064Z,3.22
2023-04-26T22:38:08.758Z,5.30
2023-04-26T22:40:35.731Z,3.47
2023-04-26T22:43:03.112Z,5.97
2023-04-26T22:45:29.924Z,4.28
2023-04-26T22:47:56.710Z,5.40
2023-04-26T22:50:23.633Z,5.57
2023-04-26T22:52:50.808Z,6.53
2023-04-26T22:55:18.236Z,3.13
2023-04-26T22:57:45.069Z,3.60
2023-04-26T23:00:12.601Z,5.20
2023-04-26T23:02:39.548Z,5.40
2023-04-26T23:05:09.855Z,4.82
2023-04-26T23:07:38.166Z,3.72
2023-04-26T23:10:05.609Z,5.32
2023-04-26T23:12:33.371Z,6.38
2023-04-26T23:15:00.242Z,4.30
2023-04-26T23:17:27.177Z,3.55
2023-04-26T23:19:54.391Z,3.40
2023-04-26T23:22:21.369Z,5.22
2023-04-26T23:24:48.220Z,3.65
2023-04-26T23:27:14.976Z,4.22
2023-04-26T23:29:41.628Z,6.00
2023-04-26T23:32:08.308Z,3.40
2023-04-26T23:34:35.072Z,4.72
2023-04-26T23:37:07.255Z,3.05
2023-04-26T23:39:35.624Z,3.47
2023-04-26T23:42:03.720Z,6.95
2023-04-26T23:44:30.516Z,5.80
2023-04-26T23:46:57.323Z,3.30
2023-04-26T23:49:24.432Z,6.28
2023-04-26T23:51:51.652Z,4.07
2023-04-26T23:54:18.566Z,4.47
2023-04-26T23:56:45.504Z,6.07
2023-04-26T23:59:12.754Z,5.00
